sensor_id;sensor_type;location;lat;lon;timestamp;temperature;humidity
25914;DHT22;13718;50.922;5.346;2022-10-16T00:01:13;15.50;99.90
25914;DHT22;13718;50.922;5.346;2022-10-16T00:03:43;15.40;99.90
25914;DHT22;13718;50.922;5.346;2022-10-16T00:06:09;15.30;99.90
25914;DHT22;13718;50.922;5.346;2022-10-16T00:08:37;15.30;99.90
25914;DHT22;13718;50.922;5.346;2022-10-16T00:11:08;15.20;99.90
25914;DHT22;13718;50.922;5.346;2022-10-16T00:13:36;15.20;99.90
25914;DHT22;13718;50.922;5.346;2022-10-16T00:16:02;15.20;99.90
25914;DHT22;13718;50.922;5.346;2022-10-16T00:18:28;15.20;99.90
25914;DHT22;13718;50.922;5.346;2022-10-16T00:20:55;15.20;99.90
25914;DHT22;13718;50.922;5.346;2022-10-16T00:23:21;15.20;99.90
25914;DHT22;13718;50.922;5.346;2022-10-16T00:25:57;15.10;99.90
25914;DHT22;13718;50.922;5.346;2022-10-16T00:28:24;15.00;99.90
25914;DHT22;13718;50.922;5.346;2022-10-16T00:30:49;15.00;99.90
25914;DHT22;13718;50.922;5.346;2022-10-16T00:33:15;14.90;99.90
25914;DHT22;13718;50.922;5.346;2022-10-16T00:35:41;15.00;99.90
25914;DHT22;13718;50.922;5.346;2022-10-16T00:38:07;15.10;99.90
25914;DHT22;13718;50.922;5.346;2022-10-16T00:40:32;15.00;99.90
25914;DHT22;13718;50.922;5.346;2022-10-16T00:42:58;15.00;99.90
25914;DHT22;13718;50.922;5.346;2022-10-16T00:45:24;14.90;99.90
25914;DHT22;13718;50.922;5.346;2022-10-16T00:47:51;14.90;99.90
25914;DHT22;13718;50.922;5.346;2022-10-16T00:50:26;14.80;99.90
25914;DHT22;13718;50.922;5.346;2022-10-16T00:52:52;14.90;99.90
25914;DHT22;13718;50.922;5.346;2022-10-16T00:55:19;14.80;99.90
25914;DHT22;13718;50.922;5.346;2022-10-16T00:57:46;14.60;99.90
25914;DHT22;13718;50.922;5.346;2022-10-16T01:00:17;14.50;99.90
25914;DHT22;13718;50.922;5.346;2022-10-16T01:02:43;14.50;99.90
25914;DHT22;13718;50.922;5.346;2022-10-16T01:05:09;14.50;99.90
25914;DHT22;13718;50.922;5.346;2022-10-16T01:07:56;14.50;99.90
25914;DHT22;13718;50.922;5.346;2022-10-16T01:13:51;14.60;99.90
25914;DHT22;13718;50.922;5.346;2022-10-16T01:16:06;14.60;99.90
25914;DHT22;13718;50.922;5.346;2022-10-16T01:18:47;14.60;99.90
25914;DHT22;13718;50.922;5.346;2022-10-16T01:21:35;14.70;99.90
25914;DHT22;13718;50.922;5.346;2022-10-16T01:24:27;14.70;99.90
25914;DHT22;13718;50.922;5.346;2022-10-16T01:27:15;14.80;99.90
25914;DHT22;13718;50.922;5.346;2022-10-16T01:37:43;14.80;99.90
25914;DHT22;13718;50.922;5.346;2022-10-16T01:40:14;14.90;99.90
25914;DHT22;13718;50.922;5.346;2022-10-16T01:42:44;14.90;99.90
25914;DHT22;13718;50.922;5.346;2022-10-16T01:45:13;14.80;99.90
25914;DHT22;13718;50.922;5.346;2022-10-16T01:47:40;14.90;99.90
25914;DHT22;13718;50.922;5.346;2022-10-16T01:50:07;15.00;99.90
25914;DHT22;13718;50.922;5.346;2022-10-16T01:52:39;15.00;99.90
25914;DHT22;13718;50.922;5.346;2022-10-16T01:55:06;15.00;99.90
25914;DHT22;13718;50.922;5.346;2022-10-16T01:57:36;14.90;99.90
25914;DHT22;13718;50.922;5.346;2022-10-16T02:00:08;14.90;99.90
25914;DHT22;13718;50.922;5.346;2022-10-16T02:02:34;15.00;99.90
25914;DHT22;13718;50.922;5.346;2022-10-16T02:05:14;14.90;99.90
25914;DHT22;13718;50.922;5.346;2022-10-16T02:07:41;14.80;99.90
25914;DHT22;13718;50.922;5.346;2022-10-16T02:10:08;14.80;99.90
25914;DHT22;13718;50.922;5.346;2022-10-16T02:12:36;14.80;99.90
25914;DHT22;13718;50.922;5.346;2022-10-16T02:15:05;14.90;99.90
25914;DHT22;13718;50.922;5.346;2022-10-16T02:17:32;14.90;99.90
25914;DHT22;13718;50.922;5.346;2022-10-16T02:19:58;14.90;99.90
25914;DHT22;13718;50.922;5.346;2022-10-16T02:27:53;14.70;99.90
25914;DHT22;13718;50.922;5.346;2022-10-16T02:30:25;14.70;99.90
25914;DHT22;13718;50.922;5.346;2022-10-16T02:32:53;14.70;99.90
25914;DHT22;13718;50.922;5.346;2022-10-16T02:35:20;14.70;99.90
25914;DHT22;13718;50.922;5.346;2022-10-16T02:37:48;14.70;99.90
25914;DHT22;13718;50.922;5.346;2022-10-16T02:40:15;14.80;99.90
25914;DHT22;13718;50.922;5.346;2022-10-16T02:42:42;14.70;99.90
25914;DHT22;13718;50.922;5.346;2022-10-16T02:45:09;14.60;99.90
25914;DHT22;13718;50.922;5.346;2022-10-16T02:47:36;14.50;99.90
25914;DHT22;13718;50.922;5.346;2022-10-16T02:50:02;14.60;99.90
25914;DHT22;13718;50.922;5.346;2022-10-16T02:52:28;14.70;99.90
25914;DHT22;13718;50.922;5.346;2022-10-16T02:54:53;14.80;99.90
25914;DHT22;13718;50.922;5.346;2022-10-16T02:57:19;14.80;99.90
25914;DHT22;13718;50.922;5.346;2022-10-16T02:59:45;14.80;99.90
25914;DHT22;13718;50.922;5.346;2022-10-16T03:02:10;14.70;99.90
25914;DHT22;13718;50.922;5.346;2022-10-16T03:04:36;14.80;99.90
25914;DHT22;13718;50.922;5.346;2022-10-16T03:07:02;14.70;99.90
25914;DHT22;13718;50.922;5.346;2022-10-16T03:09:28;14.80;99.90
25914;DHT22;13718;50.922;5.346;2022-10-16T03:11:53;14.80;99.90
25914;DHT22;13718;50.922;5.346;2022-10-16T03:14:19;14.80;99.90
25914;DHT22;13718;50.922;5.346;2022-10-16T03:16:44;14.80;99.90
25914;DHT22;13718;50.922;5.346;2022-10-16T03:19:10;14.70;99.90
25914;DHT22;13718;50.922;5.346;2022-10-16T03:21:35;14.60;99.90
25914;DHT22;13718;50.922;5.346;2022-10-16T03:24:01;14.70;99.90
25914;DHT22;13718;50.922;5.346;2022-10-16T03:26:27;14.60;99.90
25914;DHT22;13718;50.922;5.346;2022-10-16T03:28:52;14.70;99.90
25914;DHT22;13718;50.922;5.346;2022-10-16T03:31:18;14.60;99.90
25914;DHT22;13718;50.922;5.346;2022-10-16T03:33:43;14.60;99.90
25914;DHT22;13718;50.922;5.346;2022-10-16T03:36:09;14.60;99.90
25914;DHT22;13718;50.922;5.346;2022-10-16T03:38:34;14.60;99.90
25914;DHT22;13718;50.922;5.346;2022-10-16T03:41:00;14.60;99.90
25914;DHT22;13718;50.922;5.346;2022-10-16T03:43:26;14.60;99.90
25914;DHT22;13718;50.922;5.346;2022-10-16T03:45:51;14.50;99.90
25914;DHT22;13718;50.922;5.346;2022-10-16T03:48:18;14.50;99.90
25914;DHT22;13718;50.922;5.346;2022-10-16T03:50:43;14.40;99.90
25914;DHT22;13718;50.922;5.346;2022-10-16T03:53:09;14.30;99.90
25914;DHT22;13718;50.922;5.346;2022-10-16T03:55:35;14.30;99.90
25914;DHT22;13718;50.922;5.346;2022-10-16T03:58:01;14.50;99.90
25914;DHT22;13718;50.922;5.346;2022-10-16T04:00:27;14.50;99.90
25914;DHT22;13718;50.922;5.346;2022-10-16T04:02:52;14.50;99.90
25914;DHT22;13718;50.922;5.346;2022-10-16T04:05:18;14.40;99.90
25914;DHT22;13718;50.922;5.346;2022-10-16T04:07:43;14.50;99.90
25914;DHT22;13718;50.922;5.346;2022-10-16T04:10:09;14.50;99.90
25914;DHT22;13718;50.922;5.346;2022-10-16T04:12:35;14.60;99.90
25914;DHT22;13718;50.922;5.346;2022-10-16T04:15:01;14.60;99.90
25914;DHT22;13718;50.922;5.346;2022-10-16T04:17:26;14.40;99.90
25914;DHT22;13718;50.922;5.346;2022-10-16T04:19:52;14.30;99.90
25914;DHT22;13718;50.922;5.346;2022-10-16T04:22:17;14.30;99.90
25914;DHT22;13718;50.922;5.346;2022-10-16T04:24:43;14.30;99.90
25914;DHT22;13718;50.922;5.346;2022-10-16T04:27:08;14.50;99.90
25914;DHT22;13718;50.922;5.346;2022-10-16T04:29:34;14.40;99.90
25914;DHT22;13718;50.922;5.346;2022-10-16T04:32:00;14.60;99.90
25914;DHT22;13718;50.922;5.346;2022-10-16T04:34:25;14.70;99.90
25914;DHT22;13718;50.922;5.346;2022-10-16T04:36:51;14.70;99.90
25914;DHT22;13718;50.922;5.346;2022-10-16T04:39:16;14.70;99.90
25914;DHT22;13718;50.922;5.346;2022-10-16T04:41:42;14.70;99.90
25914;DHT22;13718;50.922;5.346;2022-10-16T04:44:08;14.50;99.90
25914;DHT22;13718;50.922;5.346;2022-10-16T04:46:34;14.50;99.90
25914;DHT22;13718;50.922;5.346;2022-10-16T04:48:59;14.60;99.90
25914;DHT22;13718;50.922;5.346;2022-10-16T04:51:25;14.60;99.90
25914;DHT22;13718;50.922;5.346;2022-10-16T04:53:51;14.80;99.90
25914;DHT22;13718;50.922;5.346;2022-10-16T04:56:17;14.80;99.90
25914;DHT22;13718;50.922;5.346;2022-10-16T04:58:43;14.70;99.90
25914;DHT22;13718;50.922;5.346;2022-10-16T05:01:08;14.70;99.90
25914;DHT22;13718;50.922;5.346;2022-10-16T05:03:34;14.70;99.90
25914;DHT22;13718;50.922;5.346;2022-10-16T05:06:00;14.70;99.90
25914;DHT22;13718;50.922;5.346;2022-10-16T05:08:25;14.60;99.90
25914;DHT22;13718;50.922;5.346;2022-10-16T05:10:51;14.60;99.90
25914;DHT22;13718;50.922;5.346;2022-10-16T05:13:16;14.60;99.90
25914;DHT22;13718;50.922;5.346;2022-10-16T05:15:42;14.60;99.90
25914;DHT22;13718;50.922;5.346;2022-10-16T05:18:08;14.50;99.90
25914;DHT22;13718;50.922;5.346;2022-10-16T05:20:34;14.40;99.90
25914;DHT22;13718;50.922;5.346;2022-10-16T05:22:59;14.30;99.90
25914;DHT22;13718;50.922;5.346;2022-10-16T05:25:25;14.40;99.90
25914;DHT22;13718;50.922;5.346;2022-10-16T05:27:51;14.40;99.90
25914;DHT22;13718;50.922;5.346;2022-10-16T05:30:17;14.40;99.90
25914;DHT22;13718;50.922;5.346;2022-10-16T05:32:50;14.40;99.90
25914;DHT22;13718;50.922;5.346;2022-10-16T05:35:17;14.30;99.90
25914;DHT22;13718;50.922;5.346;2022-10-16T05:37:43;14.10;99.90
25914;DHT22;13718;50.922;5.346;2022-10-16T05:40:09;14.20;99.90
25914;DHT22;13718;50.922;5.346;2022-10-16T05:42:35;14.10;99.90
25914;DHT22;13718;50.922;5.346;2022-10-16T05:45:01;14.00;99.90
25914;DHT22;13718;50.922;5.346;2022-10-16T05:47:27;13.90;99.90
25914;DHT22;13718;50.922;5.346;2022-10-16T05:49:52;14.10;99.90
25914;DHT22;13718;50.922;5.346;2022-10-16T05:52:18;14.10;99.90
25914;DHT22;13718;50.922;5.346;2022-10-16T05:54:44;14.00;99.90
25914;DHT22;13718;50.922;5.346;2022-10-16T05:57:09;13.90;99.90
25914;DHT22;13718;50.922;5.346;2022-10-16T05:59:35;13.80;99.90
25914;DHT22;13718;50.922;5.346;2022-10-16T06:02:01;13.70;99.90
25914;DHT22;13718;50.922;5.346;2022-10-16T06:04:26;13.70;99.90
25914;DHT22;13718;50.922;5.346;2022-10-16T06:06:52;13.70;99.90
25914;DHT22;13718;50.922;5.346;2022-10-16T06:09:17;13.90;99.90
25914;DHT22;13718;50.922;5.346;2022-10-16T06:11:43;13.90;99.90
25914;DHT22;13718;50.922;5.346;2022-10-16T06:14:09;13.90;99.90
25914;DHT22;13718;50.922;5.346;2022-10-16T06:16:36;13.90;99.90
25914;DHT22;13718;50.922;5.346;2022-10-16T06:19:03;14.00;99.90
25914;DHT22;13718;50.922;5.346;2022-10-16T06:21:32;14.00;99.90
25914;DHT22;13718;50.922;5.346;2022-10-16T06:23:58;14.10;99.90
25914;DHT22;13718;50.922;5.346;2022-10-16T06:26:26;14.10;99.90
25914;DHT22;13718;50.922;5.346;2022-10-16T06:28:54;14.20;99.90
25914;DHT22;13718;50.922;5.346;2022-10-16T06:31:20;14.20;99.90
25914;DHT22;13718;50.922;5.346;2022-10-16T06:33:50;14.10;99.90
25914;DHT22;13718;50.922;5.346;2022-10-16T06:36:17;14.20;99.90
25914;DHT22;13718;50.922;5.346;2022-10-16T06:38:43;14.10;99.90
25914;DHT22;13718;50.922;5.346;2022-10-16T06:41:14;14.10;99.90
25914;DHT22;13718;50.922;5.346;2022-10-16T06:43:40;14.00;99.90
25914;DHT22;13718;50.922;5.346;2022-10-16T06:46:07;14.10;99.90
25914;DHT22;13718;50.922;5.346;2022-10-16T06:48:34;14.20;99.90
25914;DHT22;13718;50.922;5.346;2022-10-16T06:51:05;14.10;99.90
25914;DHT22;13718;50.922;5.346;2022-10-16T06:53:34;14.20;99.90
25914;DHT22;13718;50.922;5.346;2022-10-16T06:56:14;14.30;99.90
25914;DHT22;13718;50.922;5.346;2022-10-16T06:58:41;14.20;99.90
25914;DHT22;13718;50.922;5.346;2022-10-16T07:01:07;14.20;99.90
25914;DHT22;13718;50.922;5.346;2022-10-16T07:03:32;14.30;99.90
25914;DHT22;13718;50.922;5.346;2022-10-16T07:06:02;14.80;99.90
25914;DHT22;13718;50.922;5.346;2022-10-16T07:08:34;15.40;99.90
25914;DHT22;13718;50.922;5.346;2022-10-16T07:11:07;15.60;99.90
25914;DHT22;13718;50.922;5.346;2022-10-16T07:13:34;15.90;99.90
25914;DHT22;13718;50.922;5.346;2022-10-16T07:16:11;16.30;99.90
25914;DHT22;13718;50.922;5.346;2022-10-16T07:18:37;16.90;99.90
25914;DHT22;13718;50.922;5.346;2022-10-16T07:21:07;17.50;99.90
25914;DHT22;13718;50.922;5.346;2022-10-16T07:23:33;17.70;99.90
25914;DHT22;13718;50.922;5.346;2022-10-16T07:25:59;17.60;99.90
25914;DHT22;13718;50.922;5.346;2022-10-16T07:28:25;17.70;99.90
25914;DHT22;13718;50.922;5.346;2022-10-16T07:30:50;18.00;99.90
25914;DHT22;13718;50.922;5.346;2022-10-16T07:33:16;18.70;99.90
25914;DHT22;13718;50.922;5.346;2022-10-16T07:35:51;19.50;99.90
25914;DHT22;13718;50.922;5.346;2022-10-16T07:38:17;20.40;99.90
25914;DHT22;13718;50.922;5.346;2022-10-16T07:40:43;21.10;99.90
25914;DHT22;13718;50.922;5.346;2022-10-16T07:43:09;21.70;99.90
25914;DHT22;13718;50.922;5.346;2022-10-16T07:45:35;22.40;99.90
25914;DHT22;13718;50.922;5.346;2022-10-16T07:48:01;23.00;99.90
25914;DHT22;13718;50.922;5.346;2022-10-16T07:50:26;23.20;99.90
25914;DHT22;13718;50.922;5.346;2022-10-16T07:52:52;23.50;99.90
25914;DHT22;13718;50.922;5.346;2022-10-16T07:55:17;23.90;99.90
25914;DHT22;13718;50.922;5.346;2022-10-16T07:57:43;24.30;99.90
25914;DHT22;13718;50.922;5.346;2022-10-16T08:00:09;24.60;99.90
25914;DHT22;13718;50.922;5.346;2022-10-16T08:02:42;24.80;99.90
25914;DHT22;13718;50.922;5.346;2022-10-16T08:05:08;25.00;99.90
25914;DHT22;13718;50.922;5.346;2022-10-16T08:07:33;25.20;99.90
25914;DHT22;13718;50.922;5.346;2022-10-16T08:09:59;25.60;99.90
25914;DHT22;13718;50.922;5.346;2022-10-16T08:12:25;25.00;99.90
25914;DHT22;13718;50.922;5.346;2022-10-16T08:14:51;23.70;99.90
25914;DHT22;13718;50.922;5.346;2022-10-16T08:17:16;22.60;99.90
25914;DHT22;13718;50.922;5.346;2022-10-16T08:19:46;21.60;99.90
25914;DHT22;13718;50.922;5.346;2022-10-16T08:22:13;20.90;99.90
25914;DHT22;13718;50.922;5.346;2022-10-16T08:24:39;20.30;99.90
25914;DHT22;13718;50.922;5.346;2022-10-16T08:27:05;19.90;99.90
25914;DHT22;13718;50.922;5.346;2022-10-16T08:29:30;19.60;99.90
25914;DHT22;13718;50.922;5.346;2022-10-16T08:31:56;19.30;99.90
25914;DHT22;13718;50.922;5.346;2022-10-16T08:34:22;19.00;99.90
25914;DHT22;13718;50.922;5.346;2022-10-16T08:36:47;19.00;99.90
25914;DHT22;13718;50.922;5.346;2022-10-16T08:39:13;18.90;99.90
25914;DHT22;13718;50.922;5.346;2022-10-16T08:44:44;18.80;99.90
25914;DHT22;13718;50.922;5.346;2022-10-16T08:48:25;18.60;99.90
25914;DHT22;13718;50.922;5.346;2022-10-16T08:50:26;18.50;99.90
25914;DHT22;13718;50.922;5.346;2022-10-16T08:52:53;18.30;99.90
25914;DHT22;13718;50.922;5.346;2022-10-16T08:55:45;18.30;99.90
25914;DHT22;13718;50.922;5.346;2022-10-16T08:58:18;18.20;99.90
25914;DHT22;13718;50.922;5.346;2022-10-16T09:00:52;18.00;99.90
25914;DHT22;13718;50.922;5.346;2022-10-16T09:03:52;18.00;99.90
25914;DHT22;13718;50.922;5.346;2022-10-16T09:06:45;18.00;99.90
25914;DHT22;13718;50.922;5.346;2022-10-16T09:09:21;18.20;99.90
25914;DHT22;13718;50.922;5.346;2022-10-16T09:11:59;18.40;99.90
25914;DHT22;13718;50.922;5.346;2022-10-16T09:14:38;18.30;99.90
25914;DHT22;13718;50.922;5.346;2022-10-16T09:17:15;18.30;99.90
25914;DHT22;13718;50.922;5.346;2022-10-16T09:19:58;18.30;99.90
25914;DHT22;13718;50.922;5.346;2022-10-16T09:22:29;18.30;99.90
25914;DHT22;13718;50.922;5.346;2022-10-16T09:25:00;18.30;99.90
25914;DHT22;13718;50.922;5.346;2022-10-16T09:27:30;18.20;99.90
25914;DHT22;13718;50.922;5.346;2022-10-16T09:29:56;18.30;99.90
25914;DHT22;13718;50.922;5.346;2022-10-16T09:32:22;18.20;99.90
25914;DHT22;13718;50.922;5.346;2022-10-16T09:34:52;18.30;99.90
25914;DHT22;13718;50.922;5.346;2022-10-16T09:37:20;18.40;99.90
25914;DHT22;13718;50.922;5.346;2022-10-16T09:39:51;18.50;99.90
25914;DHT22;13718;50.922;5.346;2022-10-16T09:42:23;18.40;99.90
25914;DHT22;13718;50.922;5.346;2022-10-16T09:44:53;18.50;99.90
25914;DHT22;13718;50.922;5.346;2022-10-16T09:47:25;18.60;99.90
25914;DHT22;13718;50.922;5.346;2022-10-16T09:49:57;18.50;99.90
25914;DHT22;13718;50.922;5.346;2022-10-16T09:52:24;18.50;99.90
25914;DHT22;13718;50.922;5.346;2022-10-16T09:54:52;18.50;99.90
25914;DHT22;13718;50.922;5.346;2022-10-16T09:57:18;18.60;99.90
25914;DHT22;13718;50.922;5.346;2022-10-16T09:59:50;18.90;99.90
25914;DHT22;13718;50.922;5.346;2022-10-16T10:02:18;18.90;99.90
25914;DHT22;13718;50.922;5.346;2022-10-16T10:04:49;18.90;99.90
25914;DHT22;13718;50.922;5.346;2022-10-16T10:07:43;18.90;99.90
25914;DHT22;13718;50.922;5.346;2022-10-16T10:10:27;18.70;99.90
25914;DHT22;13718;50.922;5.346;2022-10-16T10:12:54;18.60;99.90
25914;DHT22;13718;50.922;5.346;2022-10-16T10:15:21;18.50;99.90
25914;DHT22;13718;50.922;5.346;2022-10-16T10:17:53;18.70;99.90
25914;DHT22;13718;50.922;5.346;2022-10-16T10:20:33;19.00;99.90
25914;DHT22;13718;50.922;5.346;2022-10-16T10:23:00;19.00;99.90
25914;DHT22;13718;50.922;5.346;2022-10-16T10:33:38;18.80;99.90
25914;DHT22;13718;50.922;5.346;2022-10-16T10:46:56;19.10;99.90
25914;DHT22;13718;50.922;5.346;2022-10-16T10:49:50;19.00;99.90
25914;DHT22;13718;50.922;5.346;2022-10-16T11:09:17;19.20;99.90
25914;DHT22;13718;50.922;5.346;2022-10-16T11:19:49;19.90;99.90
25914;DHT22;13718;50.922;5.346;2022-10-16T11:22:19;20.10;99.90
25914;DHT22;13718;50.922;5.346;2022-10-16T11:30:28;19.80;99.90
25914;DHT22;13718;50.922;5.346;2022-10-16T11:35:53;19.80;99.90
25914;DHT22;13718;50.922;5.346;2022-10-16T11:41:26;19.90;99.90
25914;DHT22;13718;50.922;5.346;2022-10-16T11:44:07;20.00;99.90
25914;DHT22;13718;50.922;5.346;2022-10-16T11:46:36;20.20;99.90
25914;DHT22;13718;50.922;5.346;2022-10-16T11:49:15;20.20;99.90
25914;DHT22;13718;50.922;5.346;2022-10-16T11:51:50;20.40;99.90
25914;DHT22;13718;50.922;5.346;2022-10-16T11:56:48;20.90;99.90
25914;DHT22;13718;50.922;5.346;2022-10-16T12:04:45;20.60;99.90
25914;DHT22;13718;50.922;5.346;2022-10-16T12:07:18;20.30;99.90
25914;DHT22;13718;50.922;5.346;2022-10-16T12:09:46;20.30;99.90
25914;DHT22;13718;50.922;5.346;2022-10-16T12:12:37;20.40;99.90
25914;DHT22;13718;50.922;5.346;2022-10-16T12:17:44;21.00;99.90
25914;DHT22;13718;50.922;5.346;2022-10-16T12:23:03;21.40;99.90
25914;DHT22;13718;50.922;5.346;2022-10-16T12:25:39;21.30;99.90
25914;DHT22;13718;50.922;5.346;2022-10-16T12:30:41;21.20;99.90
25914;DHT22;13718;50.922;5.346;2022-10-16T12:33:25;21.30;99.90
25914;DHT22;13718;50.922;5.346;2022-10-16T12:35:52;21.50;99.90
25914;DHT22;13718;50.922;5.346;2022-10-16T12:40:59;21.80;99.90
25914;DHT22;13718;50.922;5.346;2022-10-16T12:43:27;22.00;99.90
25914;DHT22;13718;50.922;5.346;2022-10-16T12:46:34;22.00;99.90
25914;DHT22;13718;50.922;5.346;2022-10-16T12:51:38;22.10;99.90
25914;DHT22;13718;50.922;5.346;2022-10-16T13:07:52;21.80;99.90
25914;DHT22;13718;50.922;5.346;2022-10-16T13:13:39;21.80;99.90
25914;DHT22;13718;50.922;5.346;2022-10-16T13:22:03;21.60;99.90
25914;DHT22;13718;50.922;5.346;2022-10-16T13:24:47;21.70;99.90
25914;DHT22;13718;50.922;5.346;2022-10-16T13:29:59;21.50;99.90
25914;DHT22;13718;50.922;5.346;2022-10-16T13:32:26;21.40;99.90
25914;DHT22;13718;50.922;5.346;2022-10-16T13:34:51;21.30;99.90
25914;DHT22;13718;50.922;5.346;2022-10-16T13:37:24;21.20;99.90
25914;DHT22;13718;50.922;5.346;2022-10-16T13:39:50;21.10;99.90
25914;DHT22;13718;50.922;5.346;2022-10-16T13:42:27;21.20;99.90
25914;DHT22;13718;50.922;5.346;2022-10-16T13:44:55;21.30;99.90
25914;DHT22;13718;50.922;5.346;2022-10-16T13:47:23;21.30;99.90
25914;DHT22;13718;50.922;5.346;2022-10-16T13:50:11;21.30;99.90
25914;DHT22;13718;50.922;5.346;2022-10-16T13:52:38;21.00;99.90
25914;DHT22;13718;50.922;5.346;2022-10-16T13:55:23;20.90;99.90
25914;DHT22;13718;50.922;5.346;2022-10-16T13:57:48;20.70;99.90
25914;DHT22;13718;50.922;5.346;2022-10-16T14:00:25;20.70;99.90
25914;DHT22;13718;50.922;5.346;2022-10-16T14:03:15;20.70;99.90
25914;DHT22;13718;50.922;5.346;2022-10-16T14:05:53;20.70;99.90
25914;DHT22;13718;50.922;5.346;2022-10-16T14:08:19;20.70;99.90
25914;DHT22;13718;50.922;5.346;2022-10-16T14:10:54;20.90;99.90
25914;DHT22;13718;50.922;5.346;2022-10-16T14:13:29;21.00;99.90
25914;DHT22;13718;50.922;5.346;2022-10-16T14:15:55;21.20;99.90
25914;DHT22;13718;50.922;5.346;2022-10-16T14:18:25;21.40;99.90
25914;DHT22;13718;50.922;5.346;2022-10-16T14:20:52;21.40;99.90
25914;DHT22;13718;50.922;5.346;2022-10-16T14:23:31;21.40;99.90
25914;DHT22;13718;50.922;5.346;2022-10-16T14:28:36;21.30;99.90
25914;DHT22;13718;50.922;5.346;2022-10-16T14:33:52;21.30;99.90
25914;DHT22;13718;50.922;5.346;2022-10-16T14:36:18;21.20;99.90
25914;DHT22;13718;50.922;5.346;2022-10-16T14:39:17;21.10;99.90
25914;DHT22;13718;50.922;5.346;2022-10-16T14:41:46;21.00;99.90
25914;DHT22;13718;50.922;5.346;2022-10-16T14:44:12;20.80;99.90
25914;DHT22;13718;50.922;5.346;2022-10-16T14:46:40;20.70;99.90
25914;DHT22;13718;50.922;5.346;2022-10-16T14:51:36;20.70;99.90
25914;DHT22;13718;50.922;5.346;2022-10-16T14:54:03;20.60;99.90
25914;DHT22;13718;50.922;5.346;2022-10-16T14:56:31;20.60;99.90
25914;DHT22;13718;50.922;5.346;2022-10-16T14:58:59;20.60;99.90
25914;DHT22;13718;50.922;5.346;2022-10-16T15:01:26;20.50;99.90
25914;DHT22;13718;50.922;5.346;2022-10-16T15:03:51;20.50;99.90
25914;DHT22;13718;50.922;5.346;2022-10-16T15:06:19;20.50;99.90
25914;DHT22;13718;50.922;5.346;2022-10-16T15:08:45;20.50;99.90
25914;DHT22;13718;50.922;5.346;2022-10-16T15:11:18;20.50;99.90
25914;DHT22;13718;50.922;5.346;2022-10-16T15:13:45;20.50;99.90
25914;DHT22;13718;50.922;5.346;2022-10-16T15:16:13;20.50;99.90
25914;DHT22;13718;50.922;5.346;2022-10-16T15:18:39;20.50;99.90
25914;DHT22;13718;50.922;5.346;2022-10-16T15:21:05;20.50;99.90
25914;DHT22;13718;50.922;5.346;2022-10-16T15:23:31;20.50;99.90
25914;DHT22;13718;50.922;5.346;2022-10-16T15:25:57;20.50;99.90
25914;DHT22;13718;50.922;5.346;2022-10-16T15:28:23;20.60;99.90
25914;DHT22;13718;50.922;5.346;2022-10-16T15:30:54;20.70;99.90
25914;DHT22;13718;50.922;5.346;2022-10-16T15:33:23;20.70;99.90
25914;DHT22;13718;50.922;5.346;2022-10-16T15:35:52;20.60;99.90
25914;DHT22;13718;50.922;5.346;2022-10-16T15:38:20;20.40;99.90
25914;DHT22;13718;50.922;5.346;2022-10-16T15:40:46;20.30;99.90
25914;DHT22;13718;50.922;5.346;2022-10-16T15:43:12;20.20;99.90
25914;DHT22;13718;50.922;5.346;2022-10-16T15:45:38;20.20;99.90
25914;DHT22;13718;50.922;5.346;2022-10-16T15:48:03;20.10;99.90
25914;DHT22;13718;50.922;5.346;2022-10-16T15:50:30;20.00;99.90
25914;DHT22;13718;50.922;5.346;2022-10-16T15:52:56;20.00;99.90
25914;DHT22;13718;50.922;5.346;2022-10-16T15:55:21;19.90;99.90
25914;DHT22;13718;50.922;5.346;2022-10-16T15:57:47;19.70;99.90
25914;DHT22;13718;50.922;5.346;2022-10-16T16:00:18;19.60;99.90
25914;DHT22;13718;50.922;5.346;2022-10-16T16:02:50;19.50;99.90
25914;DHT22;13718;50.922;5.346;2022-10-16T16:05:17;19.40;99.90
25914;DHT22;13718;50.922;5.346;2022-10-16T16:07:43;19.40;99.90
25914;DHT22;13718;50.922;5.346;2022-10-16T16:10:10;19.40;99.90
25914;DHT22;13718;50.922;5.346;2022-10-16T16:12:36;19.40;99.90
25914;DHT22;13718;50.922;5.346;2022-10-16T16:15:05;19.30;99.90
25914;DHT22;13718;50.922;5.346;2022-10-16T16:17:32;19.40;99.90
25914;DHT22;13718;50.922;5.346;2022-10-16T16:19:58;19.40;99.90
25914;DHT22;13718;50.922;5.346;2022-10-16T16:22:24;19.40;99.90
25914;DHT22;13718;50.922;5.346;2022-10-16T16:24:50;19.30;99.90
25914;DHT22;13718;50.922;5.346;2022-10-16T16:27:15;19.30;99.90
25914;DHT22;13718;50.922;5.346;2022-10-16T16:29:41;19.30;99.90
25914;DHT22;13718;50.922;5.346;2022-10-16T16:32:06;19.30;99.90
25914;DHT22;13718;50.922;5.346;2022-10-16T16:34:32;19.20;99.90
25914;DHT22;13718;50.922;5.346;2022-10-16T16:36:58;19.30;99.90
25914;DHT22;13718;50.922;5.346;2022-10-16T16:39:24;19.10;99.90
25914;DHT22;13718;50.922;5.346;2022-10-16T16:41:50;19.00;99.90
25914;DHT22;13718;50.922;5.346;2022-10-16T16:44:16;19.00;99.90
25914;DHT22;13718;50.922;5.346;2022-10-16T16:49:20;18.90;99.90
25914;DHT22;13718;50.922;5.346;2022-10-16T16:51:46;19.00;99.90
25914;DHT22;13718;50.922;5.346;2022-10-16T16:54:12;19.00;99.90
25914;DHT22;13718;50.922;5.346;2022-10-16T16:56:39;19.00;99.90
25914;DHT22;13718;50.922;5.346;2022-10-16T16:59:12;18.90;99.90
25914;DHT22;13718;50.922;5.346;2022-10-16T17:01:39;18.70;99.90
25914;DHT22;13718;50.922;5.346;2022-10-16T17:04:05;18.50;99.90
25914;DHT22;13718;50.922;5.346;2022-10-16T17:06:31;18.30;99.90
25914;DHT22;13718;50.922;5.346;2022-10-16T17:08:58;18.20;99.90
25914;DHT22;13718;50.922;5.346;2022-10-16T17:11:25;18.10;99.90
25914;DHT22;13718;50.922;5.346;2022-10-16T17:13:53;18.10;99.90
25914;DHT22;13718;50.922;5.346;2022-10-16T17:16:21;18.00;99.90
25914;DHT22;13718;50.922;5.346;2022-10-16T17:18:46;18.00;99.90
25914;DHT22;13718;50.922;5.346;2022-10-16T17:21:12;17.90;99.90
25914;DHT22;13718;50.922;5.346;2022-10-16T17:23:38;17.80;99.90
25914;DHT22;13718;50.922;5.346;2022-10-16T17:26:17;17.80;99.90
25914;DHT22;13718;50.922;5.346;2022-10-16T17:28:43;17.90;99.90
25914;DHT22;13718;50.922;5.346;2022-10-16T17:31:15;18.10;99.90
25914;DHT22;13718;50.922;5.346;2022-10-16T17:33:41;18.20;99.90
25914;DHT22;13718;50.922;5.346;2022-10-16T17:36:07;18.30;99.90
25914;DHT22;13718;50.922;5.346;2022-10-16T17:38:33;18.30;99.90
25914;DHT22;13718;50.922;5.346;2022-10-16T17:41:09;18.20;99.90
25914;DHT22;13718;50.922;5.346;2022-10-16T17:43:36;17.90;99.90
25914;DHT22;13718;50.922;5.346;2022-10-16T17:46:02;17.80;99.90
25914;DHT22;13718;50.922;5.346;2022-10-16T17:48:28;17.70;99.90
25914;DHT22;13718;50.922;5.346;2022-10-16T17:50:54;17.60;99.90
25914;DHT22;13718;50.922;5.346;2022-10-16T17:53:19;17.50;99.90